sensor_id;sensor_type;location;lat;lon;timestamp;P1;durP1;ratioP1;P2;durP2;ratioP2
870;SDS011;422;51.280;7.236;2023-09-19T00:00:05;8.97;;;4.10;;
870;SDS011;422;51.280;7.236;2023-09-19T00:02:33;9.87;;;4.07;;
870;SDS011;422;51.280;7.236;2023-09-19T00:05:03;8.87;;;4.07;;
870;SDS011;422;51.280;7.236;2023-09-19T00:07:30;8.40;;;3.60;;
870;SDS011;422;51.280;7.236;2023-09-19T00:09:58;8.57;;;4.33;;
870;SDS011;422;51.280;7.236;2023-09-19T00:12:25;8.30;;;3.80;;
870;SDS011;422;51.280;7.236;2023-09-19T00:14:52;7.53;;;4.20;;
870;SDS011;422;51.280;7.236;2023-09-19T00:17:20;13.83;;;3.70;;
870;SDS011;422;51.280;7.236;2023-09-19T00:19:48;9.27;;;4.37;;
870;SDS011;422;51.280;7.236;2023-09-19T00:22:19;8.60;;;3.50;;
870;SDS011;422;51.280;7.236;2023-09-19T00:24:46;6.83;;;4.00;;
870;SDS011;422;51.280;7.236;2023-09-19T00:27:14;10.10;;;3.60;;
870;SDS011;422;51.280;7.236;2023-09-19T00:29:41;12.57;;;4.57;;
870;SDS011;422;51.280;7.236;2023-09-19T00:32:08;7.97;;;3.60;;
870;SDS011;422;51.280;7.236;2023-09-19T00:34:35;8.27;;;3.87;;
870;SDS011;422;51.280;7.236;2023-09-19T00:37:03;9.83;;;3.73;;
870;SDS011;422;51.280;7.236;2023-09-19T00:39:31;7.43;;;3.97;;
870;SDS011;422;51.280;7.236;2023-09-19T00:41:59;7.13;;;3.80;;
870;SDS011;422;51.280;7.236;2023-09-19T00:44:30;9.67;;;3.27;;
870;SDS011;422;51.280;7.236;2023-09-19T00:46:59;5.63;;;3.70;;
870;SDS011;422;51.280;7.236;2023-09-19T00:49:28;12.20;;;4.00;;
870;SDS011;422;51.280;7.236;2023-09-19T00:51:56;8.03;;;4.30;;
870;SDS011;422;51.280;7.236;2023-09-19T00:54:25;10.93;;;4.37;;
870;SDS011;422;51.280;7.236;2023-09-19T00:56:54;11.43;;;4.10;;
870;SDS011;422;51.280;7.236;2023-09-19T00:59:22;7.10;;;3.63;;
870;SDS011;422;51.280;7.236;2023-09-19T01:01:49;9.90;;;3.90;;
870;SDS011;422;51.280;7.236;2023-09-19T01:04:19;9.03;;;4.10;;
870;SDS011;422;51.280;7.236;2023-09-19T01:06:46;9.97;;;4.30;;
870;SDS011;422;51.280;7.236;2023-09-19T01:09:18;11.87;;;4.40;;
870;SDS011;422;51.280;7.236;2023-09-19T01:11:46;10.57;;;3.90;;
870;SDS011;422;51.280;7.236;2023-09-19T01:14:20;10.63;;;4.37;;
870;SDS011;422;51.280;7.236;2023-09-19T01:16:57;12.80;;;4.30;;
870;SDS011;422;51.280;7.236;2023-09-19T01:19:56;10.50;;;3.93;;
870;SDS011;422;51.280;7.236;2023-09-19T01:22:37;11.93;;;4.10;;
870;SDS011;422;51.280;7.236;2023-09-19T01:28:23;9.23;;;4.10;;
870;SDS011;422;51.280;7.236;2023-09-19T01:31:03;10.83;;;3.70;;
870;SDS011;422;51.280;7.236;2023-09-19T01:33:57;10.50;;;3.87;;
870;SDS011;422;51.280;7.236;2023-09-19T01:36:29;7.77;;;3.97;;
870;SDS011;422;51.280;7.236;2023-09-19T01:39:00;8.23;;;3.37;;
870;SDS011;422;51.280;7.236;2023-09-19T01:41:41;9.23;;;3.43;;
870;SDS011;422;51.280;7.236;2023-09-19T01:44:24;12.27;;;4.23;;
870;SDS011;422;51.280;7.236;2023-09-19T01:46:59;10.73;;;3.50;;
870;SDS011;422;51.280;7.236;2023-09-19T01:49:37;12.07;;;4.10;;
870;SDS011;422;51.280;7.236;2023-09-19T01:52:15;10.97;;;4.57;;
870;SDS011;422;51.280;7.236;2023-09-19T01:54:46;12.90;;;4.33;;
870;SDS011;422;51.280;7.236;2023-09-19T01:57:27;11.17;;;3.73;;
870;SDS011;422;51.280;7.236;2023-09-19T01:59:59;10.50;;;4.60;;
870;SDS011;422;51.280;7.236;2023-09-19T02:02:33;8.20;;;2.87;;
870;SDS011;422;51.280;7.236;2023-09-19T02:05:03;10.17;;;4.20;;
870;SDS011;422;51.280;7.236;2023-09-19T02:07:31;10.57;;;3.47;;
870;SDS011;422;51.280;7.236;2023-09-19T02:09:59;12.07;;;4.60;;
870;SDS011;422;51.280;7.236;2023-09-19T02:12:26;9.57;;;4.27;;
870;SDS011;422;51.280;7.236;2023-09-19T02:14:53;11.97;;;3.50;;
870;SDS011;422;51.280;7.236;2023-09-19T02:17:22;10.87;;;4.90;;
870;SDS011;422;51.280;7.236;2023-09-19T02:19:52;9.43;;;3.60;;
870;SDS011;422;51.280;7.236;2023-09-19T02:22:20;13.13;;;4.67;;
870;SDS011;422;51.280;7.236;2023-09-19T02:24:49;13.67;;;4.20;;
870;SDS011;422;51.280;7.236;2023-09-19T02:27:17;10.63;;;4.23;;
870;SDS011;422;51.280;7.236;2023-09-19T02:29:45;10.23;;;4.13;;
870;SDS011;422;51.280;7.236;2023-09-19T02:32:13;9.57;;;4.10;;
870;SDS011;422;51.280;7.236;2023-09-19T02:34:40;9.13;;;3.53;;
870;SDS011;422;51.280;7.236;2023-09-19T02:37:09;9.47;;;4.53;;
870;SDS011;422;51.280;7.236;2023-09-19T02:39:38;12.90;;;4.50;;
870;SDS011;422;51.280;7.236;2023-09-19T02:42:05;10.60;;;3.90;;
870;SDS011;422;51.280;7.236;2023-09-19T02:44:33;7.30;;;4.10;;
870;SDS011;422;51.280;7.236;2023-09-19T02:47:00;8.87;;;4.07;;
870;SDS011;422;51.280;7.236;2023-09-19T02:49:28;9.37;;;3.90;;
870;SDS011;422;51.280;7.236;2023-09-19T02:51:55;8.60;;;3.83;;
870;SDS011;422;51.280;7.236;2023-09-19T02:54:25;9.20;;;4.00;;
870;SDS011;422;51.280;7.236;2023-09-19T02:56:54;7.23;;;3.60;;
870;SDS011;422;51.280;7.236;2023-09-19T02:59:22;5.53;;;3.50;;
870;SDS011;422;51.280;7.236;2023-09-19T03:01:53;9.50;;;3.53;;
870;SDS011;422;51.280;7.236;2023-09-19T03:04:21;11.70;;;4.10;;
870;SDS011;422;51.280;7.236;2023-09-19T03:06:48;10.73;;;4.13;;
870;SDS011;422;51.280;7.236;2023-09-19T03:09:16;12.47;;;4.07;;
870;SDS011;422;51.280;7.236;2023-09-19T03:11:46;9.90;;;4.07;;
870;SDS011;422;51.280;7.236;2023-09-19T03:14:13;9.57;;;4.70;;
870;SDS011;422;51.280;7.236;2023-09-19T03:16:41;12.37;;;4.63;;
870;SDS011;422;51.280;7.236;2023-09-19T03:19:09;12.37;;;4.33;;
870;SDS011;422;51.280;7.236;2023-09-19T03:21:37;10.10;;;4.30;;
870;SDS011;422;51.280;7.236;2023-09-19T03:24:05;9.20;;;3.70;;
870;SDS011;422;51.280;7.236;2023-09-19T03:26:32;10.40;;;3.67;;
870;SDS011;422;51.280;7.236;2023-09-19T03:29:03;7.90;;;3.60;;
870;SDS011;422;51.280;7.236;2023-09-19T03:31:33;9.57;;;3.70;;
870;SDS011;422;51.280;7.236;2023-09-19T03:34:03;7.50;;;3.53;;
870;SDS011;422;51.280;7.236;2023-09-19T03:36:30;9.50;;;3.80;;
870;SDS011;422;51.280;7.236;2023-09-19T03:39:00;8.63;;;4.23;;
870;SDS011;422;51.280;7.236;2023-09-19T03:41:30;8.40;;;3.60;;
870;SDS011;422;51.280;7.236;2023-09-19T03:43:58;11.93;;;3.70;;
870;SDS011;422;51.280;7.236;2023-09-19T03:46:27;9.43;;;3.93;;
870;SDS011;422;51.280;7.236;2023-09-19T03:48:55;10.50;;;3.90;;
870;SDS011;422;51.280;7.236;2023-09-19T03:51:22;8.67;;;3.30;;
870;SDS011;422;51.280;7.236;2023-09-19T03:53:49;12.30;;;4.90;;
870;SDS011;422;51.280;7.236;2023-09-19T03:56:17;13.30;;;4.13;;
870;SDS011;422;51.280;7.236;2023-09-19T03:58:44;6.37;;;3.37;;
870;SDS011;422;51.280;7.236;2023-09-19T04:01:11;6.23;;;2.97;;
870;SDS011;422;51.280;7.236;2023-09-19T04:03:40;11.70;;;4.07;;
870;SDS011;422;51.280;7.236;2023-09-19T04:06:13;6.90;;;4.07;;
870;SDS011;422;51.280;7.236;2023-09-19T04:08:41;9.93;;;4.00;;
870;SDS011;422;51.280;7.236;2023-09-19T04:11:08;7.33;;;3.70;;
870;SDS011;422;51.280;7.236;2023-09-19T04:13:36;9.20;;;4.00;;
870;SDS011;422;51.280;7.236;2023-09-19T04:16:05;14.30;;;3.53;;
870;SDS011;422;51.280;7.236;2023-09-19T04:18:32;8.77;;;4.43;;
870;SDS011;422;51.280;7.236;2023-09-19T04:21:04;8.70;;;3.33;;
870;SDS011;422;51.280;7.236;2023-09-19T04:23:32;7.90;;;3.43;;
870;SDS011;422;51.280;7.236;2023-09-19T04:25:59;8.47;;;3.47;;
870;SDS011;422;51.280;7.236;2023-09-19T04:28:29;11.60;;;4.50;;
870;SDS011;422;51.280;7.236;2023-09-19T04:30:56;6.80;;;3.47;;
870;SDS011;422;51.280;7.236;2023-09-19T04:33:23;7.30;;;3.93;;
870;SDS011;422;51.280;7.236;2023-09-19T04:35:52;10.43;;;3.70;;
870;SDS011;422;51.280;7.236;2023-09-19T04:38:21;10.87;;;3.57;;
870;SDS011;422;51.280;7.236;2023-09-19T04:40:48;8.77;;;4.50;;
870;SDS011;422;51.280;7.236;2023-09-19T04:43:16;7.47;;;3.63;;
870;SDS011;422;51.280;7.236;2023-09-19T04:45:43;16.33;;;4.40;;
870;SDS011;422;51.280;7.236;2023-09-19T04:48:11;9.53;;;3.80;;
870;SDS011;422;51.280;7.236;2023-09-19T04:50:39;6.80;;;3.40;;
870;SDS011;422;51.280;7.236;2023-09-19T04:53:06;7.77;;;3.40;;
870;SDS011;422;51.280;7.236;2023-09-19T04:55:35;9.13;;;4.00;;
870;SDS011;422;51.280;7.236;2023-09-19T04:58:03;12.53;;;3.40;;
870;SDS011;422;51.280;7.236;2023-09-19T05:00:30;14.77;;;4.60;;
870;SDS011;422;51.280;7.236;2023-09-19T05:03:01;11.43;;;5.63;;
870;SDS011;422;51.280;7.236;2023-09-19T05:05:31;11.40;;;3.70;;
870;SDS011;422;51.280;7.236;2023-09-19T05:08:00;10.37;;;3.63;;
870;SDS011;422;51.280;7.236;2023-09-19T05:10:30;13.37;;;4.03;;
870;SDS011;422;51.280;7.236;2023-09-19T05:12:59;11.83;;;4.40;;
870;SDS011;422;51.280;7.236;2023-09-19T05:15:26;11.67;;;4.70;;
870;SDS011;422;51.280;7.236;2023-09-19T05:17:53;10.67;;;4.10;;
870;SDS011;422;51.280;7.236;2023-09-19T05:20:21;10.07;;;4.00;;
870;SDS011;422;51.280;7.236;2023-09-19T05:22:57;9.10;;;4.60;;
870;SDS011;422;51.280;7.236;2023-09-19T05:25:27;8.90;;;3.60;;
870;SDS011;422;51.280;7.236;2023-09-19T05:27:56;8.50;;;4.30;;
870;SDS011;422;51.280;7.236;2023-09-19T05:30:28;9.73;;;3.50;;
870;SDS011;422;51.280;7.236;2023-09-19T05:32:56;12.80;;;4.90;;
870;SDS011;422;51.280;7.236;2023-09-19T05:35:23;10.20;;;3.67;;
870;SDS011;422;51.280;7.236;2023-09-19T05:37:52;7.90;;;3.47;;
870;SDS011;422;51.280;7.236;2023-09-19T05:40:21;13.57;;;4.00;;
870;SDS011;422;51.280;7.236;2023-09-19T05:42:48;10.70;;;3.90;;
870;SDS011;422;51.280;7.236;2023-09-19T05:45:17;12.57;;;4.80;;
870;SDS011;422;51.280;7.236;2023-09-19T05:47:47;20.03;;;5.50;;
870;SDS011;422;51.280;7.236;2023-09-19T05:50:15;10.33;;;4.60;;
870;SDS011;422;51.280;7.236;2023-09-19T05:52:43;12.20;;;4.37;;
870;SDS011;422;51.280;7.236;2023-09-19T05:55:18;13.87;;;5.20;;
870;SDS011;422;51.280;7.236;2023-09-19T05:57:49;15.20;;;4.37;;
870;SDS011;422;51.280;7.236;2023-09-19T06:00:19;11.13;;;3.80;;
870;SDS011;422;51.280;7.236;2023-09-19T06:02:50;8.57;;;4.10;;
870;SDS011;422;51.280;7.236;2023-09-19T06:05:18;11.63;;;3.97;;
870;SDS011;422;51.280;7.236;2023-09-19T06:07:46;11.97;;;4.53;;
870;SDS011;422;51.280;7.236;2023-09-19T06:10:14;11.27;;;4.77;;
870;SDS011;422;51.280;7.236;2023-09-19T06:12:42;10.10;;;4.43;;
870;SDS011;422;51.280;7.236;2023-09-19T06:15:10;10.80;;;3.87;;
870;SDS011;422;51.280;7.236;2023-09-19T06:17:41;13.13;;;4.60;;
870;SDS011;422;51.280;7.236;2023-09-19T06:20:09;8.80;;;3.93;;
870;SDS011;422;51.280;7.236;2023-09-19T06:22:40;9.77;;;4.43;;
870;SDS011;422;51.280;7.236;2023-09-19T06:25:08;13.37;;;3.87;;
870;SDS011;422;51.280;7.236;2023-09-19T06:27:37;8.93;;;4.37;;
870;SDS011;422;51.280;7.236;2023-09-19T06:30:07;8.90;;;3.83;;
870;SDS011;422;51.280;7.236;2023-09-19T06:32:36;9.50;;;3.90;;
870;SDS011;422;51.280;7.236;2023-09-19T06:35:05;16.40;;;4.20;;
870;SDS011;422;51.280;7.236;2023-09-19T06:37:36;8.20;;;3.77;;
870;SDS011;422;51.280;7.236;2023-09-19T06:40:05;13.30;;;4.57;;
870;SDS011;422;51.280;7.236;2023-09-19T06:42:38;14.60;;;4.80;;
870;SDS011;422;51.280;7.236;2023-09-19T06:45:07;9.97;;;4.83;;
870;SDS011;422;51.280;7.236;2023-09-19T06:47:36;11.30;;;3.87;;
870;SDS011;422;51.280;7.236;2023-09-19T06:50:05;9.90;;;4.27;;
870;SDS011;422;51.280;7.236;2023-09-19T06:52:38;10.20;;;4.90;;
870;SDS011;422;51.280;7.236;2023-09-19T06:55:06;8.90;;;3.73;;
870;SDS011;422;51.280;7.236;2023-09-19T06:57:35;11.53;;;3.90;;
870;SDS011;422;51.280;7.236;2023-09-19T07:00:02;14.07;;;4.57;;
870;SDS011;422;51.280;7.236;2023-09-19T07:02:34;11.03;;;3.90;;
870;SDS011;422;51.280;7.236;2023-09-19T07:05:01;6.30;;;3.30;;
870;SDS011;422;51.280;7.236;2023-09-19T07:07:32;12.00;;;3.93;;
870;SDS011;422;51.280;7.236;2023-09-19T07:10:00;10.47;;;4.23;;
870;SDS011;422;51.280;7.236;2023-09-19T07:12:27;11.90;;;5.43;;
870;SDS011;422;51.280;7.236;2023-09-19T07:14:54;8.90;;;3.80;;
870;SDS011;422;51.280;7.236;2023-09-19T07:17:22;9.10;;;4.37;;
870;SDS011;422;51.280;7.236;2023-09-19T07:19:49;11.60;;;4.30;;
870;SDS011;422;51.280;7.236;2023-09-19T07:22:17;11.10;;;4.53;;
870;SDS011;422;51.280;7.236;2023-09-19T07:24:46;9.77;;;4.17;;
870;SDS011;422;51.280;7.236;2023-09-19T07:27:14;11.30;;;3.73;;
870;SDS011;422;51.280;7.236;2023-09-19T07:29:41;11.23;;;3.90;;
870;SDS011;422;51.280;7.236;2023-09-19T07:32:10;14.23;;;4.93;;
870;SDS011;422;51.280;7.236;2023-09-19T07:34:38;11.97;;;3.93;;
870;SDS011;422;51.280;7.236;2023-09-19T07:37:06;10.40;;;4.53;;
870;SDS011;422;51.280;7.236;2023-09-19T07:39:34;9.67;;;4.40;;
870;SDS011;422;51.280;7.236;2023-09-19T07:42:03;9.63;;;4.67;;
870;SDS011;422;51.280;7.236;2023-09-19T07:44:32;15.50;;;4.67;;
870;SDS011;422;51.280;7.236;2023-09-19T07:47:01;8.37;;;3.90;;
870;SDS011;422;51.280;7.236;2023-09-19T07:49:28;9.30;;;4.60;;
870;SDS011;422;51.280;7.236;2023-09-19T07:51:56;11.37;;;3.70;;
870;SDS011;422;51.280;7.236;2023-09-19T07:54:24;9.90;;;3.83;;
870;SDS011;422;51.280;7.236;2023-09-19T07:56:51;6.60;;;3.67;;
870;SDS011;422;51.280;7.236;2023-09-19T07:59:20;11.07;;;4.13;;
870;SDS011;422;51.280;7.236;2023-09-19T08:01:48;9.03;;;3.70;;
870;SDS011;422;51.280;7.236;2023-09-19T08:04:16;13.57;;;3.93;;
870;SDS011;422;51.280;7.236;2023-09-19T08:06:44;7.13;;;3.50;;
870;SDS011;422;51.280;7.236;2023-09-19T08:09:11;13.50;;;4.20;;
870;SDS011;422;51.280;7.236;2023-09-19T08:11:45;10.73;;;4.83;;
870;SDS011;422;51.280;7.236;2023-09-19T08:14:13;9.43;;;4.30;;
870;SDS011;422;51.280;7.236;2023-09-19T08:16:42;9.90;;;3.53;;
870;SDS011;422;51.280;7.236;2023-09-19T08:19:09;10.50;;;3.90;;
870;SDS011;422;51.280;7.236;2023-09-19T08:21:37;13.60;;;5.13;;
870;SDS011;422;51.280;7.236;2023-09-19T08:24:04;6.90;;;4.30;;
870;SDS011;422;51.280;7.236;2023-09-19T08:26:32;13.43;;;4.23;;
870;SDS011;422;51.280;7.236;2023-09-19T08:29:03;10.70;;;4.23;;
870;SDS011;422;51.280;7.236;2023-09-19T08:31:32;10.80;;;3.83;;
870;SDS011;422;51.280;7.236;2023-09-19T08:34:01;9.37;;;4.10;;
870;SDS011;422;51.280;7.236;2023-09-19T08:36:28;9.13;;;3.63;;
870;SDS011;422;51.280;7.236;2023-09-19T08:38:56;8.60;;;3.77;;
870;SDS011;422;51.280;7.236;2023-09-19T08:41:23;9.30;;;4.17;;
870;SDS011;422;51.280;7.236;2023-09-19T08:43:50;11.27;;;4.10;;
870;SDS011;422;51.280;7.236;2023-09-19T08:46:18;9.53;;;3.83;;
870;SDS011;422;51.280;7.236;2023-09-19T08:48:54;15.67;;;4.80;;
870;SDS011;422;51.280;7.236;2023-09-19T08:51:33;8.97;;;4.00;;
870;SDS011;422;51.280;7.236;2023-09-19T08:54:07;10.30;;;3.63;;
870;SDS011;422;51.280;7.236;2023-09-19T08:56:35;15.90;;;4.10;;
870;SDS011;422;51.280;7.236;2023-09-19T08:59:05;12.40;;;3.57;;
870;SDS011;422;51.280;7.236;2023-09-19T09:01:33;9.97;;;3.63;;
870;SDS011;422;51.280;7.236;2023-09-19T09:04:01;11.40;;;4.47;;
870;SDS011;422;51.280;7.236;2023-09-19T09:06:30;6.10;;;3.70;;
870;SDS011;422;51.280;7.236;2023-09-19T09:08:58;10.07;;;4.20;;
870;SDS011;422;51.280;7.236;2023-09-19T09:11:26;10.70;;;3.93;;
870;SDS011;422;51.280;7.236;2023-09-19T09:13:54;11.80;;;4.17;;
870;SDS011;422;51.280;7.236;2023-09-19T09:16:22;9.63;;;3.63;;
870;SDS011;422;51.280;7.236;2023-09-19T09:18:51;9.33;;;3.70;;
870;SDS011;422;51.280;7.236;2023-09-19T09:21:19;9.43;;;4.33;;
870;SDS011;422;51.280;7.236;2023-09-19T09:23:49;9.43;;;3.70;;
870;SDS011;422;51.280;7.236;2023-09-19T09:26:22;9.00;;;3.80;;
870;SDS011;422;51.280;7.236;2023-09-19T09:29:08;11.83;;;4.00;;
870;SDS011;422;51.280;7.236;2023-09-19T09:31:35;9.20;;;3.80;;
870;SDS011;422;51.280;7.236;2023-09-19T09:34:03;7.77;;;3.90;;
870;SDS011;422;51.280;7.236;2023-09-19T09:36:34;7.67;;;3.30;;
870;SDS011;422;51.280;7.236;2023-09-19T09:39:06;8.87;;;3.83;;
870;SDS011;422;51.280;7.236;2023-09-19T09:41:43;8.00;;;4.20;;
870;SDS011;422;51.280;7.236;2023-09-19T09:44:14;11.67;;;4.00;;
870;SDS011;422;51.280;7.236;2023-09-19T09:46:43;8.13;;;3.40;;
870;SDS011;422;51.280;7.236;2023-09-19T09:49:41;11.87;;;3.90;;
870;SDS011;422;51.280;7.236;2023-09-19T09:52:19;10.00;;;4.50;;
870;SDS011;422;51.280;7.236;2023-09-19T09:55:00;8.73;;;3.63;;
870;SDS011;422;51.280;7.236;2023-09-19T09:57:30;8.93;;;4.53;;
870;SDS011;422;51.280;7.236;2023-09-19T09:59:59;10.47;;;3.80;;
870;SDS011;422;51.280;7.236;2023-09-19T10:02:41;8.97;;;3.70;;
870;SDS011;422;51.280;7.236;2023-09-19T10:05:12;9.83;;;3.70;;
870;SDS011;422;51.280;7.236;2023-09-19T10:07:47;10.03;;;3.70;;
870;SDS011;422;51.280;7.236;2023-09-19T10:10:30;7.00;;;3.70;;
870;SDS011;422;51.280;7.236;2023-09-19T10:13:09;8.20;;;4.13;;
870;SDS011;422;51.280;7.236;2023-09-19T10:15:40;8.30;;;4.30;;
870;SDS011;422;51.280;7.236;2023-09-19T10:18:16;7.03;;;4.47;;
870;SDS011;422;51.280;7.236;2023-09-19T10:20:47;10.50;;;3.73;;
870;SDS011;422;51.280;7.236;2023-09-19T10:23:16;9.47;;;3.70;;
870;SDS011;422;51.280;7.236;2023-09-19T10:25:49;6.47;;;3.90;;
870;SDS011;422;51.280;7.236;2023-09-19T10:28:17;8.77;;;4.20;;
870;SDS011;422;51.280;7.236;2023-09-19T10:30:47;7.00;;;3.80;;
870;SDS011;422;51.280;7.236;2023-09-19T10:33:17;6.87;;;3.87;;
870;SDS011;422;51.280;7.236;2023-09-19T10:35:46;10.20;;;4.53;;
870;SDS011;422;51.280;7.236;2023-09-19T10:38:18;7.67;;;3.70;;
870;SDS011;422;51.280;7.236;2023-09-19T10:40:50;5.77;;;3.57;;
870;SDS011;422;51.280;7.236;2023-09-19T10:43:25;7.70;;;3.77;;
870;SDS011;422;51.280;7.236;2023-09-19T10:45:57;8.23;;;3.47;;
870;SDS011;422;51.280;7.236;2023-09-19T10:48:29;9.60;;;4.30;;
870;SDS011;422;51.280;7.236;2023-09-19T10:51:01;11.83;;;4.80;;
870;SDS011;422;51.280;7.236;2023-09-19T10:53:39;5.43;;;3.53;;
870;SDS011;422;51.280;7.236;2023-09-19T10:56:13;6.73;;;3.60;;
870;SDS011;422;51.280;7.236;2023-09-19T10:58:45;8.50;;;4.17;;
870;SDS011;422;51.280;7.236;2023-09-19T11:01:14;6.90;;;3.70;;
870;SDS011;422;51.280;7.236;2023-09-19T11:03:43;6.77;;;3.10;;
870;SDS011;422;51.280;7.236;2023-09-19T11:06:11;6.30;;;3.43;;
870;SDS011;422;51.280;7.236;2023-09-19T11:11:48;7.77;;;3.77;;
870;SDS011;422;51.280;7.236;2023-09-19T11:14:30;15.40;;;3.67;;
870;SDS011;422;51.280;7.236;2023-09-19T11:20:18;11.43;;;4.20;;
870;SDS011;422;51.280;7.236;2023-09-19T11:25:49;8.90;;;4.17;;
870;SDS011;422;51.280;7.236;2023-09-19T11:28:30;9.03;;;3.77;;
870;SDS011;422;51.280;7.236;2023-09-19T11:30:58;6.47;;;3.40;;
870;SDS011;422;51.280;7.236;2023-09-19T11:33:26;9.33;;;3.53;;
870;SDS011;422;51.280;7.236;2023-09-19T11:35:59;8.13;;;3.53;;
870;SDS011;422;51.280;7.236;2023-09-19T11:41:39;6.23;;;3.17;;
870;SDS011;422;51.280;7.236;2023-09-19T11:47:04;7.10;;;3.80;;
870;SDS011;422;51.280;7.236;2023-09-19T11:49:34;9.33;;;3.53;;
870;SDS011;422;51.280;7.236;2023-09-19T11:52:07;5.03;;;3.50;;
870;SDS011;422;51.280;7.236;2023-09-19T11:54:36;7.87;;;3.50;;
870;SDS011;422;51.280;7.236;2023-09-19T11:57:06;6.17;;;3.53;;
870;SDS011;422;51.280;7.236;2023-09-19T11:59:38;11.10;;;4.03;;
870;SDS011;422;51.280;7.236;2023-09-19T12:02:06;6.13;;;3.57;;
870;SDS011;422;51.280;7.236;2023-09-19T12:04:36;6.17;;;3.23;;
870;SDS011;422;51.280;7.236;2023-09-19T12:07:06;7.17;;;3.43;;
870;SDS011;422;51.280;7.236;2023-09-19T12:09:40;7.40;;;3.80;;
870;SDS011;422;51.280;7.236;2023-09-19T12:12:10;10.50;;;4.23;;
870;SDS011;422;51.280;7.236;2023-09-19T12:14:43;6.30;;;3.47;;
870;SDS011;422;51.280;7.236;2023-09-19T12:17:15;6.13;;;3.83;;
870;SDS011;422;51.280;7.236;2023-09-19T12:19:49;7.97;;;3.77;;
870;SDS011;422;51.280;7.236;2023-09-19T12:22:17;5.73;;;3.77;;
870;SDS011;422;51.280;7.236;2023-09-19T12:24:46;5.40;;;3.67;;
870;SDS011;422;51.280;7.236;2023-09-19T12:27:14;4.37;;;3.00;;
870;SDS011;422;51.280;7.236;2023-09-19T12:29:44;7.30;;;3.70;;
870;SDS011;422;51.280;7.236;2023-09-19T12:32:14;7.07;;;3.50;;
870;SDS011;422;51.280;7.236;2023-09-19T12:34:42;11.23;;;3.70;;
870;SDS011;422;51.280;7.236;2023-09-19T12:37:17;5.93;;;3.77;;
870;SDS011;422;51.280;7.236;2023-09-19T12:39:47;8.83;;;3.70;;
870;SDS011;422;51.280;7.236;2023-09-19T12:42:17;9.50;;;3.23;;
870;SDS011;422;51.280;7.236;2023-09-19T12:44:48;7.40;;;3.33;;
870;SDS011;422;51.280;7.236;2023-09-19T12:47:20;6.60;;;3.47;;
870;SDS011;422;51.280;7.236;2023-09-19T12:52:40;5.83;;;3.30;;
870;SDS011;422;51.280;7.236;2023-09-19T12:55:18;5.77;;;3.80;;
870;SDS011;422;51.280;7.236;2023-09-19T12:58:02;5.27;;;3.30;;
870;SDS011;422;51.280;7.236;2023-09-19T13:00:36;6.27;;;3.53;;
870;SDS011;422;51.280;7.236;2023-09-19T13:03:09;5.20;;;2.93;;
870;SDS011;422;51.280;7.236;2023-09-19T13:05:50;4.10;;;3.60;;
870;SDS011;422;51.280;7.236;2023-09-19T13:08:20;6.10;;;3.00;;
870;SDS011;422;51.280;7.236;2023-09-19T13:11:01;5.80;;;3.73;;
870;SDS011;422;51.280;7.236;2023-09-19T13:13:31;6.33;;;3.40;;
870;SDS011;422;51.280;7.236;2023-09-19T13:16:03;4.77;;;2.83;;
870;SDS011;422;51.280;7.236;2023-09-19T13:18:41;4.50;;;3.00;;
870;SDS011;422;51.280;7.236;2023-09-19T13:21:13;9.80;;;2.80;;
870;SDS011;422;51.280;7.236;2023-09-19T13:23:52;5.50;;;3.17;;
870;SDS011;422;51.280;7.236;2023-09-19T13:26:24;6.40;;;3.47;;
870;SDS011;422;51.280;7.236;2023-09-19T13:28:53;4.90;;;3.10;;
870;SDS011;422;51.280;7.236;2023-09-19T13:31:22;4.43;;;3.00;;
870;SDS011;422;51.280;7.236;2023-09-19T13:33:50;4.73;;;2.90;;
870;SDS011;422;51.280;7.236;2023-09-19T13:36:18;6.10;;;3.33;;
870;SDS011;422;51.280;7.236;2023-09-19T13:38:45;6.70;;;3.07;;
870;SDS011;422;51.280;7.236;2023-09-19T13:41:14;3.47;;;2.60;;
870;SDS011;422;51.280;7.236;2023-09-19T13:43:42;4.47;;;2.77;;
870;SDS011;422;51.280;7.236;2023-09-19T13:46:13;3.50;;;2.60;;
870;SDS011;422;51.280;7.236;2023-09-19T13:48:43;4.33;;;2.40;;
870;SDS011;422;51.280;7.236;2023-09-19T13:51:12;7.53;;;2.73;;
870;SDS011;422;51.280;7.236;2023-09-19T13:53:40;3.13;;;2.67;;
870;SDS011;422;51.280;7.236;2023-09-19T13:56:07;4.80;;;2.97;;
870;SDS011;422;51.280;7.236;2023-09-19T13:58:35;5.10;;;2.70;;
870;SDS011;422;51.280;7.236;2023-09-19T14:01:02;4.50;;;3.50;;
870;SDS011;422;51.280;7.236;2023-09-19T14:03:30;4.57;;;3.23;;
870;SDS011;422;51.280;7.236;2023-09-19T14:05:59;4.60;;;3.43;;
870;SDS011;422;51.280;7.236;2023-09-19T14:08:26;4.00;;;2.80;;
870;SDS011;422;51.280;7.236;2023-09-19T14:10:54;4.80;;;2.53;;
870;SDS011;422;51.280;7.236;2023-09-19T14:13:21;5.10;;;2.30;;
870;SDS011;422;51.280;7.236;2023-09-19T14:15:51;7.23;;;2.70;;
870;SDS011;422;51.280;7.236;2023-09-19T14:18:19;4.17;;;2.40;;
870;SDS011;422;51.280;7.236;2023-09-19T14:20:47;4.07;;;2.30;;
870;SDS011;422;51.280;7.236;2023-09-19T14:23:19;7.43;;;3.13;;
870;SDS011;422;51.280;7.236;2023-09-19T14:25:48;4.87;;;2.57;;
870;SDS011;422;51.280;7.236;2023-09-19T14:28:17;8.00;;;4.50;;
870;SDS011;422;51.280;7.236;2023-09-19T14:30:45;3.33;;;2.47;;
870;SDS011;422;51.280;7.236;2023-09-19T14:33:15;3.70;;;2.60;;
870;SDS011;422;51.280;7.236;2023-09-19T14:35:42;4.57;;;2.47;;
870;SDS011;422;51.280;7.236;2023-09-19T14:38:09;3.97;;;2.53;;
870;SDS011;422;51.280;7.236;2023-09-19T14:40:38;4.60;;;2.50;;
870;SDS011;422;51.280;7.236;2023-09-19T14:43:07;8.97;;;2.33;;
870;SDS011;422;51.280;7.236;2023-09-19T14:45:35;2.90;;;1.63;;
870;SDS011;422;51.280;7.236;2023-09-19T14:48:06;4.60;;;2.47;;
870;SDS011;422;51.280;7.236;2023-09-19T14:50:33;5.60;;;2.20;;
870;SDS011;422;51.280;7.236;2023-09-19T14:53:00;4.33;;;2.40;;
870;SDS011;422;51.280;7.236;2023-09-19T14:55:28;3.30;;;2.50;;
870;SDS011;422;51.280;7.236;2023-09-19T14:58:01;3.40;;;2.33;;
870;SDS011;422;51.280;7.236;2023-09-19T15:00:28;7.97;;;2.70;;
870;SDS011;422;51.280;7.236;2023-09-19T15:02:57;3.07;;;2.20;;
870;SDS011;422;51.280;7.236;2023-09-19T15:05:25;3.20;;;2.00;;
870;SDS011;422;51.280;7.236;2023-09-19T15:07:54;3.80;;;2.30;;
870;SDS011;422;51.280;7.236;2023-09-19T15:10:22;4.70;;;2.50;;
870;SDS011;422;51.280;7.236;2023-09-19T15:12:50;5.03;;;2.63;;
870;SDS011;422;51.280;7.236;2023-09-19T15:15:19;2.80;;;1.90;;
870;SDS011;422;51.280;7.236;2023-09-19T15:17:47;2.40;;;2.00;;
870;SDS011;422;51.280;7.236;2023-09-19T15:20:14;5.03;;;2.57;;
870;SDS011;422;51.280;7.236;2023-09-19T15:22:43;3.73;;;2.17;;
870;SDS011;422;51.280;7.236;2023-09-19T15:25:11;4.40;;;2.17;;
870;SDS011;422;51.280;7.236;2023-09-19T15:27:38;5.73;;;2.63;;
870;SDS011;422;51.280;7.236;2023-09-19T15:30:07;4.83;;;2.40;;
870;SDS011;422;51.280;7.236;2023-09-19T15:32:37;3.20;;;2.17;;
870;SDS011;422;51.280;7.236;2023-09-19T15:35:06;3.50;;;2.90;;
870;SDS011;422;51.280;7.236;2023-09-19T15:37:39;3.50;;;1.90;;
870;SDS011;422;51.280;7.236;2023-09-19T15:40:07;4.87;;;2.30;;
870;SDS011;422;51.280;7.236;2023-09-19T15:42:41;5.00;;;2.20;;
870;SDS011;422;51.280;7.236;2023-09-19T15:45:09;5.00;;;2.33;;
870;SDS011;422;51.280;7.236;2023-09-19T15:47:38;4.30;;;2.13;;
870;SDS011;422;51.280;7.236;2023-09-19T15:50:06;5.20;;;2.17;;
870;SDS011;422;51.280;7.236;2023-09-19T15:52:34;4.13;;;2.10;;
870;SDS011;422;51.280;7.236;2023-09-19T15:55:02;4.57;;;2.30;;
870;SDS011;422;51.280;7.236;2023-09-19T15:57:31;3.90;;;2.67;;
870;SDS011;422;51.280;7.236;2023-09-19T15:59:59;4.87;;;2.77;;
870;SDS011;422;51.280;7.236;2023-09-19T16:02:28;2.90;;;2.07;;
870;SDS011;422;51.280;7.236;2023-09-19T16:04:57;3.80;;;2.20;;
870;SDS011;422;51.280;7.236;2023-09-19T16:07:24;4.43;;;2.47;;
870;SDS011;422;51.280;7.236;2023-09-19T16:09:52;4.60;;;2.57;;
870;SDS011;422;51.280;7.236;2023-09-19T16:12:20;3.83;;;2.37;;
870;SDS011;422;51.280;7.236;2023-09-19T16:14:48;3.87;;;2.40;;
870;SDS011;422;51.280;7.236;2023-09-19T16:17:15;5.33;;;3.03;;